Time;durP1;ratioP1;P1;durP2;ratioP2;P2;SDS_P1;SDS_P2;PMS_P1;PMS_P2;Temp;Humidity;BMP_temperature;BMP_pressure;BME280_temperature;BME280_humidity;BME280_pressure;Samples;Min_cycle;Max_cycle;Signal;HPM_P1;HPM_P2
2022/03/18 00:00:56;;;;;;;11.43;5.13;;;9.00;99.90;;;;;;5035770;28;20060;-74
2022/03/18 00:03:22;;;;;;;13.43;5.50;;;9.00;99.90;;;;;;5065889;28;20044;-74
2022/03/18 00:05:48;;;;;;;9.98;4.68;;;9.10;99.90;;;;;;5069199;28;20315;-75
2022/03/18 00:08:14;;;;;;;11.48;5.57;;;9.00;99.90;;;;;;5057533;28;20031;-74
2022/03/18 00:10:40;;;;;;;12.30;5.20;;;9.30;99.90;;;;;;5065748;28;20100;-74
2022/03/18 00:13:06;;;;;;;14.18;5.22;;;9.00;99.90;;;;;;5051341;28;20330;-74
2022/03/18 00:15:32;;;;;;;10.93;5.15;;;9.10;99.90;;;;;;5051551;28;20064;-74
2022/03/18 00:17:58;;;;;;;15.25;5.47;;;9.00;99.90;;;;;;5050791;28;20048;-73
2022/03/18 00:20:24;;;;;;;13.27;6.22;;;9.30;99.90;;;;;;5061336;28;20357;-74
2022/03/18 00:22:50;;;;;;;9.23;5.32;;;9.10;99.90;;;;;;5041566;28;20338;-73
2022/03/18 00:25:17;;;;;;;10.60;5.70;;;9.00;99.90;;;;;;5063422;28;20278;-73
2022/03/18 00:27:44;;;;;;;11.02;5.45;;;9.10;99.90;;;;;;5060531;28;20051;-73
2022/03/18 00:30:16;;;;;;;13.68;5.22;;;8.80;99.90;;;;;;5073474;28;20429;-74
2022/03/18 00:32:43;;;;;;;13.80;5.88;;;9.20;99.90;;;;;;5081889;28;20357;-74
2022/03/18 00:35:10;;;;;;;14.52;5.97;;;9.20;99.90;;;;;;5059050;28;20085;-73
2022/03/18 00:37:36;;;;;;;13.80;6.05;;;9.10;99.90;;;;;;5049107;28;20219;-74
2022/03/18 00:40:04;;;;;;;13.07;6.70;;;9.30;99.90;;;;;;5034368;28;20029;-73
2022/03/18 00:42:31;;;;;;;17.83;6.03;;;9.30;99.90;;;;;;5081369;28;20105;-73
2022/03/18 00:44:58;;;;;;;11.30;5.07;;;9.10;99.90;;;;;;5072401;28;20040;-73
2022/03/18 00:52:55;;;;;;;12.32;6.05;;;9.30;99.90;;;;;;5026388;28;20071;-72
2022/03/18 00:55:21;;;;;;;12.80;6.00;;;9.40;99.90;;;;;;5051371;28;20040;-73
2022/03/18 00:57:47;;;;;;;17.50;7.35;;;9.10;99.90;;;;;;5050427;28;20095;-73
2022/03/18 01:00:23;;;;;;;17.05;7.43;;;9.20;99.90;;;;;;5047416;28;20346;-74
2022/03/18 01:02:49;;;;;;;13.77;6.88;;;9.20;99.90;;;;;;5057946;28;20028;-73
2022/03/18 01:05:14;;;;;;;14.68;6.53;;;9.50;99.90;;;;;;5069849;28;20281;-75
2022/03/18 01:07:40;;;;;;;13.77;8.07;;;9.20;99.90;;;;;;5066250;28;20389;-75
2022/03/18 01:10:07;;;;;;;16.15;6.57;;;9.10;99.90;;;;;;5058637;28;20370;-74
2022/03/18 01:12:33;;;;;;;18.90;8.00;;;9.00;99.90;;;;;;5068633;28;20040;-74
2022/03/18 01:14:58;;;;;;;14.85;6.68;;;9.30;99.90;;;;;;5042150;28;20055;-74
2022/03/18 01:17:24;;;;;;;13.35;5.75;;;9.30;99.90;;;;;;5072451;28;20052;-74
2022/03/18 01:19:50;;;;;;;10.00;5.90;;;9.00;99.90;;;;;;5067208;28;20071;-74
2022/03/18 01:22:15;;;;;;;12.30;6.03;;;8.90;99.90;;;;;;5046349;28;20329;-74
2022/03/18 01:24:41;;;;;;;10.35;6.32;;;8.70;99.90;;;;;;5057233;28;20104;-74
2022/03/18 01:27:07;;;;;;;14.43;6.35;;;9.10;99.90;;;;;;5054030;28;20044;-74
2022/03/18 01:29:34;;;;;;;18.13;7.18;;;8.90;99.90;;;;;;5069765;28;20036;-74
2022/03/18 01:32:00;;;;;;;14.38;6.10;;;8.90;99.90;;;;;;5064676;28;20052;-74
2022/03/18 01:34:26;;;;;;;12.70;6.85;;;9.00;99.90;;;;;;5048775;28;20063;-74
2022/03/18 01:36:51;;;;;;;12.80;7.32;;;9.10;99.90;;;;;;5055126;28;20028;-74
2022/03/18 01:39:17;;;;;;;16.15;7.47;;;8.90;99.90;;;;;;5051486;28;20326;-74
2022/03/18 01:41:43;;;;;;;15.48;6.18;;;8.60;99.90;;;;;;5077423;28;20041;-75
2022/03/18 01:44:12;;;;;;;13.15;5.75;;;8.70;99.90;;;;;;5053888;28;20327;-74
2022/03/18 01:46:39;;;;;;;10.00;5.88;;;8.50;99.90;;;;;;5077309;28;20334;-74
2022/03/18 01:49:05;;;;;;;16.65;5.80;;;8.70;99.90;;;;;;5067130;28;20037;-74
2022/03/18 01:51:32;;;;;;;14.00;5.15;;;8.70;99.90;;;;;;5056130;28;20372;-74
2022/03/18 01:56:43;;;;;;;13.95;6.47;;;8.50;99.90;;;;;;5078150;28;20045;-74
2022/03/18 01:59:11;;;;;;;10.65;5.93;;;8.70;99.90;;;;;;5056050;28;20074;-74
2022/03/18 02:01:37;;;;;;;13.93;6.40;;;8.30;99.90;;;;;;5072615;28;20369;-74
2022/03/18 02:04:03;;;;;;;11.50;6.43;;;8.30;99.90;;;;;;5051933;28;20075;-74
2022/03/18 02:06:29;;;;;;;11.95;6.97;;;8.70;99.90;;;;;;5043830;28;20198;-74
2022/03/18 02:08:54;;;;;;;12.40;5.78;;;8.50;99.90;;;;;;5070700;28;20028;-75
2022/03/18 02:11:21;;;;;;;13.48;6.43;;;8.50;99.90;;;;;;5063226;28;20036;-74
2022/03/18 02:13:50;;;;;;;14.55;7.05;;;8.50;99.90;;;;;;5071128;28;20140;-74
2022/03/18 02:16:15;;;;;;;12.57;7.35;;;8.60;99.90;;;;;;5053359;28;20052;-76
2022/03/18 02:18:41;;;;;;;14.40;7.10;;;8.80;99.90;;;;;;5044048;28;20044;-75
2022/03/18 02:21:08;;;;;;;13.57;6.75;;;8.50;99.90;;;;;;5074101;28;20443;-76
2022/03/18 02:23:34;;;;;;;12.70;6.93;;;8.40;99.90;;;;;;5076969;28;20219;-75
2022/03/18 02:26:00;;;;;;;15.85;7.10;;;8.60;99.90;;;;;;5052898;28;20036;-75
2022/03/18 02:28:26;;;;;;;11.43;7.05;;;8.40;99.90;;;;;;5069799;28;20040;-75
2022/03/18 02:30:51;;;;;;;15.88;7.30;;;8.70;99.90;;;;;;5063828;28;20367;-74
2022/03/18 02:33:18;;;;;;;16.02;8.00;;;8.70;99.90;;;;;;5062108;28;20048;-75
2022/03/18 02:35:43;;;;;;;15.32;7.40;;;8.50;99.90;;;;;;5044953;28;20043;-74
2022/03/18 02:38:09;;;;;;;20.88;8.30;;;8.50;99.90;;;;;;5046989;28;20099;-74
2022/03/18 02:40:34;;;;;;;19.38;8.65;;;8.50;99.90;;;;;;5046501;28;20037;-74
2022/03/18 02:43:00;;;;;;;10.32;7.45;;;8.50;99.90;;;;;;5038674;28;20025;-73
2022/03/18 02:45:26;;;;;;;11.45;7.07;;;8.50;99.90;;;;;;5076831;28;20052;-75
2022/03/18 02:47:52;;;;;;;12.60;7.25;;;8.40;99.90;;;;;;5034619;28;20032;-74
2022/03/18 02:50:17;;;;;;;15.63;7.18;;;8.70;99.90;;;;;;5066079;28;20408;-74
2022/03/18 02:52:44;;;;;;;15.48;8.25;;;8.60;99.90;;;;;;5047573;28;20037;-74
2022/03/18 02:55:10;;;;;;;19.33;9.35;;;8.80;99.90;;;;;;5076157;28;20037;-75
2022/03/18 02:57:44;;;;;;;14.05;7.22;;;8.60;99.90;;;;;;5062614;28;20036;-73
2022/03/18 03:00:11;;;;;;;14.83;8.30;;;8.50;99.90;;;;;;5046095;28;20040;-75
2022/03/18 03:02:36;;;;;;;14.82;7.57;;;8.70;99.90;;;;;;5047481;28;20064;-74
2022/03/18 03:07:59;;;;;;;17.77;7.97;;;8.50;99.90;;;;;;5061062;28;20043;-73
2022/03/18 03:10:26;;;;;;;15.52;8.85;;;9.00;99.90;;;;;;5062588;28;20211;-74
2022/03/18 03:12:51;;;;;;;16.50;7.53;;;9.00;99.90;;;;;;5045278;28;20040;-74
2022/03/18 03:15:18;;;;;;;10.63;6.93;;;9.00;99.90;;;;;;5052589;28;20056;-74
2022/03/18 03:17:44;;;;;;;14.65;8.05;;;8.70;99.90;;;;;;5029323;28;20077;-74
2022/03/18 03:20:10;;;;;;;12.23;7.88;;;8.80;99.90;;;;;;5068598;28;20258;-73
2022/03/18 03:22:36;;;;;;;15.57;7.47;;;9.00;99.90;;;;;;5062317;28;20053;-73
2022/03/18 03:25:02;;;;;;;16.75;9.38;;;8.60;99.90;;;;;;5052027;28;20036;-74
2022/03/18 03:27:31;;;;;;;17.77;9.10;;;8.80;99.90;;;;;;5045713;28;20032;-73
2022/03/18 03:29:59;;;;;;;19.98;8.68;;;8.90;99.90;;;;;;5042287;28;20247;-73
2022/03/18 03:32:25;;;;;;;13.93;7.18;;;9.10;99.90;;;;;;5046563;28;20044;-74
2022/03/18 03:34:51;;;;;;;15.57;7.55;;;8.90;99.90;;;;;;5029545;28;20353;-73
2022/03/18 03:37:16;;;;;;;15.38;8.38;;;8.60;99.90;;;;;;5074821;28;20048;-76
2022/03/18 03:39:42;;;;;;;15.30;7.97;;;9.10;99.90;;;;;;5061369;28;20044;-74
2022/03/18 03:42:08;;;;;;;13.20;7.95;;;8.90;99.90;;;;;;5038215;28;20040;-76
2022/03/18 03:44:33;;;;;;;14.90;7.57;;;9.00;99.90;;;;;;5059086;28;20111;-73
2022/03/18 03:46:59;;;;;;;12.48;7.18;;;9.10;99.90;;;;;;5042382;28;20104;-74
2022/03/18 03:49:25;;;;;;;15.10;8.43;;;8.70;99.90;;;;;;5076577;28;20119;-74
2022/03/18 03:51:50;;;;;;;15.25;7.50;;;8.80;99.90;;;;;;5064173;28;20044;-74
2022/03/18 03:54:16;;;;;;;13.15;7.63;;;8.90;99.90;;;;;;5063483;28;20247;-73
2022/03/18 03:56:42;;;;;;;17.63;8.15;;;8.90;99.90;;;;;;5037241;28;20044;-74
2022/03/18 03:59:07;;;;;;;16.88;8.95;;;8.80;99.90;;;;;;5062698;28;20040;-74
2022/03/18 04:01:33;;;;;;;17.95;9.45;;;9.30;99.90;;;;;;5040730;28;21604;-74
2022/03/18 04:03:59;;;;;;;18.85;9.88;;;9.40;99.90;;;;;;5073124;28;20273;-74
2022/03/18 04:06:25;;;;;;;20.67;9.80;;;9.50;99.90;;;;;;5040048;28;20032;-73
2022/03/18 04:08:51;;;;;;;16.58;10.07;;;9.60;99.90;;;;;;5041410;28;20032;-73
2022/03/18 04:11:17;;;;;;;14.27;8.63;;;9.60;99.90;;;;;;5059131;28;20044;-73
2022/03/18 04:13:42;;;;;;;11.80;7.55;;;9.60;99.90;;;;;;5050393;28;20059;-74
2022/03/18 04:16:08;;;;;;;14.07;7.97;;;9.60;99.90;;;;;;5067196;28;20257;-74
2022/03/18 04:18:34;;;;;;;14.13;8.30;;;9.80;99.90;;;;;;5050368;28;20048;-73
2022/03/18 04:20:59;;;;;;;14.05;8.90;;;9.80;99.90;;;;;;5054965;28;20044;-74
2022/03/18 04:23:25;;;;;;;17.15;9.80;;;9.90;99.90;;;;;;5027214;28;20036;-73
2022/03/18 04:25:51;;;;;;;20.08;11.05;;;10.10;99.90;;;;;;5055202;28;20043;-75
2022/03/18 04:28:17;;;;;;;17.90;10.80;;;10.10;99.90;;;;;;5054548;28;20400;-74
2022/03/18 04:30:44;;;;;;;19.35;10.73;;;9.80;99.90;;;;;;5075255;28;20098;-74
2022/03/18 04:33:10;;;;;;;14.75;10.00;;;10.30;99.90;;;;;;5075959;28;20044;-74
2022/03/18 04:35:36;;;;;;;17.17;10.63;;;9.90;99.90;;;;;;5069025;28;20203;-75
2022/03/18 04:38:01;;;;;;;16.65;9.57;;;10.20;99.90;;;;;;5052738;28;20210;-75
2022/03/18 04:40:27;;;;;;;18.77;10.57;;;10.30;99.90;;;;;;5064936;28;20044;-74
2022/03/18 04:42:53;;;;;;;20.60;10.10;;;10.40;99.90;;;;;;5067895;28;20336;-74
2022/03/18 04:45:19;;;;;;;16.90;9.73;;;10.00;99.90;;;;;;5056083;28;20137;-74
2022/03/18 04:47:47;;;;;;;18.65;10.40;;;10.10;99.90;;;;;;5065316;28;20032;-75
2022/03/18 04:50:13;;;;;;;18.95;10.45;;;10.60;99.90;;;;;;5041183;28;20304;-74
2022/03/18 04:52:39;;;;;;;19.33;11.02;;;9.90;99.90;;;;;;5058059;28;20071;-74
2022/03/18 04:55:05;;;;;;;17.00;10.30;;;10.00;99.90;;;;;;5057434;28;20115;-75
2022/03/18 04:57:31;;;;;;;17.58;11.38;;;10.50;99.90;;;;;;5066068;28;20044;-74
2022/03/18 04:59:57;;;;;;;19.17;10.88;;;10.50;99.90;;;;;;5072246;28;20059;-74
2022/03/18 05:02:24;;;;;;;13.80;10.35;;;10.40;99.90;;;;;;5033726;28;20384;-74
2022/03/18 05:04:50;;;;;;;18.88;10.90;;;10.50;99.90;;;;;;5070029;28;20044;-74
2022/03/18 05:07:17;;;;;;;15.25;9.63;;;9.80;99.90;;;;;;5029664;28;20335;-75
2022/03/18 05:09:45;;;;;;;13.07;8.55;;;9.80;99.90;;;;;;5058946;28;20033;-75
2022/03/18 05:12:12;;;;;;;16.35;10.55;;;9.70;99.90;;;;;;5075029;28;20041;-75
2022/03/18 05:14:39;;;;;;;16.85;10.07;;;9.60;99.90;;;;;;5058879;28;20092;-75
2022/03/18 05:17:07;;;;;;;13.05;9.57;;;10.20;99.90;;;;;;5053459;28;20048;-75
2022/03/18 05:19:33;;;;;;;12.63;8.35;;;9.80;99.90;;;;;;5075036;28;20036;-74
2022/03/18 05:24:57;;;;;;;16.67;9.68;;;9.40;99.90;;;;;;5048380;28;21140;-76
2022/03/18 05:27:24;;;;;;;15.25;9.82;;;9.70;99.90;;;;;;5061632;28;20040;-75
2022/03/18 05:29:50;;;;;;;16.63;10.02;;;9.90;99.90;;;;;;5073280;28;20399;-75
2022/03/18 05:32:16;;;;;;;17.75;9.60;;;9.50;99.90;;;;;;5055352;28;20032;-75
2022/03/18 05:34:42;;;;;;;17.15;9.63;;;9.80;99.90;;;;;;5074998;28;20056;-75
2022/03/18 05:37:08;;;;;;;21.35;11.00;;;9.60;99.90;;;;;;5069795;28;20097;-76
2022/03/18 05:39:34;;;;;;;16.10;9.88;;;9.60;99.90;;;;;;5069535;28;20121;-76
2022/03/18 05:42:00;;;;;;;17.23;10.82;;;9.20;99.90;;;;;;5049418;28;20033;-76
2022/03/18 05:44:26;;;;;;;18.25;11.50;;;9.50;99.90;;;;;;5072481;28;20127;-74
2022/03/18 05:46:51;;;;;;;18.15;11.85;;;9.30;99.90;;;;;;5069164;28;20025;-74
2022/03/18 05:49:18;;;;;;;16.77;10.73;;;9.60;99.90;;;;;;5045225;28;20036;-75
2022/03/18 05:51:45;;;;;;;16.08;10.80;;;9.10;99.90;;;;;;5043190;28;20083;-74
2022/03/18 05:54:11;;;;;;;17.20;10.50;;;9.50;99.90;;;;;;5069940;28;20036;-73
2022/03/18 05:56:53;;;;;;;21.63;11.70;;;9.40;99.90;;;;;;5069608;28;20270;-74
2022/03/18 05:59:31;;;;;;;17.38;11.32;;;9.50;99.90;;;;;;5065149;28;20155;-74
2022/03/18 06:01:58;;;;;;;18.42;11.23;;;9.10;99.90;;;;;;5063873;28;20056;-74
2022/03/18 06:04:25;;;;;;;19.95;11.68;;;9.30;99.90;;;;;;5067156;28;20040;-73
2022/03/18 06:06:52;;;;;;;18.80;11.77;;;9.20;99.90;;;;;;5070136;28;20063;-74
2022/03/18 06:12:03;;;;;;;;;;;9.20;99.90;;;;;;5077631;28;20036;-74
2022/03/18 06:14:30;;;;;;;16.48;10.88;;;9.20;99.90;;;;;;5048878;28;19920;-73
2022/03/18 06:16:59;;;;;;;15.52;9.98;;;9.60;99.90;;;;;;5086621;28;20243;-74
2022/03/18 06:19:25;;;;;;;16.58;9.40;;;9.60;99.90;;;;;;5063865;28;20032;-74
2022/03/18 06:21:51;;;;;;;16.17;9.65;;;9.60;99.90;;;;;;5051961;28;20036;-73
2022/03/18 06:24:18;;;;;;;13.93;8.98;;;9.40;99.90;;;;;;5066887;28;20091;-74
2022/03/18 06:26:44;;;;;;;17.00;9.85;;;9.80;99.90;;;;;;5063005;28;20107;-74
2022/03/18 06:29:11;;;;;;;13.68;9.85;;;9.30;99.90;;;;;;5048592;28;20094;-73
2022/03/18 06:31:39;;;;;;;14.93;9.38;;;9.80;99.90;;;;;;5060154;28;20037;-73
2022/03/18 06:34:06;;;;;;;16.35;10.48;;;9.40;99.90;;;;;;5050266;28;20345;-74
2022/03/18 06:36:32;;;;;;;16.48;10.75;;;9.50;99.90;;;;;;5071322;28;20067;-74
2022/03/18 06:38:58;;;;;;;16.85;10.07;;;9.40;99.90;;;;;;5060459;28;20108;-74
2022/03/18 06:41:25;;;;;;;15.80;9.75;;;9.50;99.90;;;;;;5030056;28;20052;-74
2022/03/18 06:43:50;;;;;;;10.57;8.25;;;10.00;99.90;;;;;;5061624;28;20037;-74
2022/03/18 06:46:17;;;;;;;12.50;8.23;;;9.50;99.90;;;;;;5056338;28;20388;-74
2022/03/18 06:48:43;;;;;;;14.23;8.68;;;9.80;99.90;;;;;;5071413;28;20227;-74
2022/03/18 06:51:10;;;;;;;11.82;8.57;;;10.10;99.90;;;;;;5037379;28;20199;-75
2022/03/18 06:53:36;;;;;;;13.82;8.95;;;10.10;99.90;;;;;;5071452;28;20068;-74
2022/03/18 06:56:04;;;;;;;13.82;8.93;;;10.00;99.90;;;;;;5073184;28;20090;-74
2022/03/18 06:58:31;;;;;;;13.70;8.07;;;9.60;99.90;;;;;;5079006;28;20078;-74
2022/03/18 07:00:57;;;;;;;10.25;7.53;;;9.90;99.90;;;;;;5053133;28;20048;-73
2022/03/18 07:03:22;;;;;;;10.32;8.80;;;9.50;99.90;;;;;;5063837;28;20306;-75
2022/03/18 07:05:48;;;;;;;16.02;9.25;;;9.90;99.90;;;;;;5052299;28;20078;-73
2022/03/18 07:08:14;;;;;;;16.23;7.53;;;9.70;99.90;;;;;;5061002;28;20037;-74
2022/03/18 07:10:40;;;;;;;13.27;8.82;;;9.80;99.90;;;;;;5045346;28;20040;-73
2022/03/18 07:13:06;;;;;;;14.68;8.88;;;9.80;99.90;;;;;;5049764;28;20040;-73
2022/03/18 07:15:32;;;;;;;14.73;9.65;;;9.80;99.90;;;;;;5049564;28;20044;-74
2022/03/18 07:18:02;;;;;;;14.75;9.23;;;9.20;99.90;;;;;;5049306;28;20041;-74
2022/03/18 07:20:31;;;;;;;12.93;8.63;;;9.40;99.90;;;;;;5046249;28;20202;-74
2022/03/18 07:23:04;;;;;;;14.25;9.55;;;9.10;99.90;;;;;;5052264;28;20223;-74
2022/03/18 07:25:31;;;;;;;14.20;8.35;;;9.20;99.90;;;;;;5058030;28;20242;-74
2022/03/18 07:27:57;;;;;;;12.43;8.70;;;9.30;99.90;;;;;;5061190;28;20064;-74
2022/03/18 07:30:23;;;;;;;14.10;9.05;;;9.90;99.90;;;;;;5036593;28;20086;-74
2022/03/18 07:32:49;;;;;;;14.30;8.70;;;9.50;99.90;;;;;;5044724;28;20036;-76
2022/03/18 07:35:15;;;;;;;12.70;7.80;;;9.70;99.90;;;;;;5052067;28;20072;-76
2022/03/18 07:37:42;;;;;;;14.80;8.65;;;10.20;99.90;;;;;;5064531;28;20094;-75
2022/03/18 07:40:09;;;;;;;12.57;8.43;;;10.10;99.90;;;;;;5065539;28;20200;-75
2022/03/18 07:42:49;;;;;;;13.57;8.55;;;9.80;99.90;;;;;;5049700;28;20044;-75
2022/03/18 07:45:22;;;;;;;13.00;9.18;;;9.80;99.90;;;;;;5070744;28;20033;-75
2022/03/18 07:47:52;;;;;;;11.87;8.20;;;10.40;99.90;;;;;;5073214;28;20331;-74
2022/03/18 07:50:29;;;;;;;17.13;8.52;;;10.20;99.90;;;;;;5047352;28;20052;-74
2022/03/18 07:53:01;;;;;;;13.30;9.68;;;10.50;99.90;;;;;;5065625;28;20033;-75
2022/03/18 07:55:29;;;;;;;14.45;9.23;;;10.10;99.90;;;;;;5047850;28;20047;-75
2022/03/18 07:57:57;;;;;;;13.90;9.75;;;10.40;99.90;;;;;;5053503;28;20051;-75
2022/03/18 08:00:23;;;;;;;15.20;9.30;;;10.90;99.90;;;;;;5072165;28;20037;-74
2022/03/18 08:02:52;;;;;;;15.23;8.82;;;10.40;99.90;;;;;;5073225;28;20100;-75
2022/03/18 08:05:19;;;;;;;15.20;9.00;;;10.90;99.90;;;;;;5075234;28;20358;-75
2022/03/18 08:07:46;;;;;;;13.93;8.68;;;10.80;99.90;;;;;;5070222;28;20048;-75
2022/03/18 08:10:13;;;;;;;17.75;9.15;;;10.80;99.90;;;;;;5069683;28;20051;-75
2022/03/18 08:12:40;;;;;;;18.20;9.05;;;11.30;99.90;;;;;;5075503;28;20059;-74
2022/03/18 08:15:11;;;;;;;16.40;8.25;;;11.10;99.90;;;;;;5052135;28;20041;-74
2022/03/18 08:17:41;;;;;;;15.23;8.05;;;11.20;99.90;;;;;;5051014;28;20051;-74
2022/03/18 08:20:09;;;;;;;16.77;8.40;;;11.50;99.90;;;;;;5080607;28;20036;-74
2022/03/18 08:22:38;;;;;;;18.45;8.63;;;11.20;99.90;;;;;;5081342;28;20044;-73
2022/03/18 08:25:06;;;;;;;19.30;8.82;;;11.80;99.90;;;;;;5058467;28;20107;-72
2022/03/18 08:27:32;;;;;;;18.38;8.75;;;11.30;99.90;;;;;;5068263;28;20024;-74
2022/03/18 08:29:59;;;;;;;16.65;8.07;;;11.60;99.90;;;;;;5050295;28;20056;-73
2022/03/18 08:32:27;;;;;;;18.25;8.63;;;11.80;99.90;;;;;;5046454;28;20048;-74
2022/03/18 08:34:53;;;;;;;17.20;9.02;;;11.70;99.90;;;;;;5069334;28;20315;-74
2022/03/18 08:37:56;;;;;;;18.88;8.88;;;11.30;99.90;;;;;;5063876;28;20278;-75
2022/03/18 08:40:07;;;;;;;15.88;8.57;;;11.50;99.90;;;;;;5082574;28;20246;-75
2022/03/18 08:42:34;;;;;;;19.38;8.73;;;11.50;99.90;;;;;;5063953;28;20052;-73
2022/03/18 08:45:01;;;;;;;17.60;9.48;;;11.70;99.90;;;;;;5065965;28;20094;-73
2022/03/18 08:47:26;;;;;;;15.85;8.70;;;11.60;99.90;;;;;;5073304;28;20037;-73
2022/03/18 08:49:52;;;;;;;13.70;8.65;;;12.30;99.90;;;;;;5082175;28;20095;-73
2022/03/18 08:52:18;;;;;;;13.02;8.32;;;11.80;99.90;;;;;;5082710;28;20047;-73
2022/03/18 08:54:44;;;;;;;14.80;8.38;;;12.30;99.90;;;;;;5067885;28;20063;-74
2022/03/18 08:57:10;;;;;;;15.63;8.50;;;12.50;99.90;;;;;;5053452;28;20044;-75
2022/03/18 08:59:35;;;;;;;13.63;8.52;;;12.00;99.90;;;;;;5074256;28;20243;-75
2022/03/18 09:02:01;;;;;;;19.27;8.50;;;12.10;99.90;;;;;;5067662;28;20068;-74
2022/03/18 09:04:27;;;;;;;15.07;8.55;;;12.30;99.90;;;;;;5048292;28;20291;-75
2022/03/18 09:06:53;;;;;;;18.38;9.32;;;12.00;99.90;;;;;;5043226;28;20035;-73
2022/03/18 09:09:18;;;;;;;18.45;8.95;;;12.60;99.90;;;;;;5041238;28;20032;-73
2022/03/18 09:11:44;;;;;;;19.33;9.20;;;11.90;99.90;;;;;;5060909;28;20040;-73
2022/03/18 09:14:10;;;;;;;15.65;8.07;;;12.60;99.90;;;;;;5047328;28;20064;-75
2022/03/18 09:16:38;;;;;;;15.68;8.38;;;12.40;99.90;;;;;;5052147;28;20052;-75
2022/03/18 09:19:07;;;;;;;18.48;8.13;;;12.00;99.90;;;;;;5068933;28;20052;-76
2022/03/18 09:21:34;;;;;;;18.05;8.85;;;12.10;99.90;;;;;;5068587;28;20044;-76
2022/03/18 09:24:00;;;;;;;13.88;8.00;;;12.70;99.90;;;;;;5041083;28;20247;-74
2022/03/18 09:26:26;;;;;;;16.30;8.32;;;12.10;99.90;;;;;;5066052;28;20047;-75
2022/03/18 09:28:52;;;;;;;10.77;7.85;;;13.00;99.90;;;;;;5052305;28;20115;-74
2022/03/18 09:31:18;;;;;;;16.90;8.13;;;12.60;99.90;;;;;;5070435;28;20049;-74
2022/03/18 09:33:46;;;;;;;16.20;8.05;;;13.10;99.90;;;;;;5054425;28;20048;-73
2022/03/18 09:36:14;;;;;;;19.58;8.48;;;13.00;99.90;;;;;;5074610;28;20044;-74
2022/03/18 09:38:41;;;;;;;18.92;8.23;;;12.60;99.90;;;;;;5057515;28;20052;-73
2022/03/18 09:41:07;;;;;;;15.73;7.35;;;13.30;99.90;;;;;;5018070;28;20048;-74
2022/03/18 09:43:40;;;;;;;15.63;7.40;;;13.30;99.90;;;;;;5038868;28;20115;-73
2022/03/18 09:46:11;;;;;;;15.20;7.68;;;13.40;99.90;;;;;;5072912;28;20115;-73
2022/03/18 09:48:37;;;;;;;13.43;6.78;;;13.20;99.90;;;;;;5074816;28;20067;-74
2022/03/18 09:51:03;;;;;;;13.82;6.72;;;13.20;99.90;;;;;;5023387;28;20083;-74
2022/03/18 09:53:29;;;;;;;18.77;7.15;;;13.80;99.90;;;;;;5048623;28;20060;-74
2022/03/18 09:55:55;;;;;;;15.55;6.72;;;13.00;99.90;;;;;;5056731;28;20158;-74
2022/03/18 09:58:22;;;;;;;10.98;5.80;;;13.20;99.90;;;;;;5041709;28;20059;-76
2022/03/18 10:00:50;;;;;;;13.25;6.43;;;13.50;99.90;;;;;;5039416;28;20057;-74
2022/03/18 10:03:19;;;;;;;12.52;6.30;;;13.30;99.90;;;;;;5041049;28;20072;-74
2022/03/18 10:05:59;;;;;;;14.82;6.40;;;13.60;99.90;;;;;;5058111;28;20041;-74
2022/03/18 10:08:39;;;;;;;18.42;6.88;;;13.60;99.90;;;;;;5074650;28;20048;-73
2022/03/18 10:11:16;;;;;;;15.50;6.43;;;13.70;99.90;;;;;;5057463;28;20165;-74
2022/03/18 10:13:56;;;;;;;12.90;6.35;;;14.30;99.90;;;;;;5043187;28;20064;-74
2022/03/18 10:16:39;;;;;;;14.70;6.03;;;14.20;99.90;;;;;;5057632;28;20078;-74
2022/03/18 10:19:19;;;;;;;14.07;6.30;;;14.20;99.90;;;;;;5041214;28;20059;-74
2022/03/18 10:22:01;;;;;;;13.82;6.18;;;13.80;99.90;;;;;;5058247;28;20045;-75
2022/03/18 10:24:31;;;;;;;15.60;6.68;;;13.90;99.90;;;;;;5066648;28;20057;-76
2022/03/18 10:27:22;;;;;;;12.60;6.40;;;14.40;99.90;;;;;;5057442;28;20044;-76
2022/03/18 10:29:55;;;;;;;14.38;7.38;;;14.00;99.90;;;;;;5056919;28;20105;-74
2022/03/18 10:32:31;;;;;;;15.23;6.22;;;13.90;99.90;;;;;;5057094;28;20154;-74
2022/03/18 10:37:53;;;;;;;12.93;5.97;;;13.40;99.90;;;;;;5059463;28;20501;-74
2022/03/18 10:40:35;;;;;;;9.55;5.47;;;13.70;99.90;;;;;;5066769;28;20336;-74
2022/03/18 10:43:04;;;;;;;15.32;6.68;;;14.10;99.90;;;;;;5040719;28;20048;-74
2022/03/18 10:45:30;;;;;;;15.38;6.78;;;13.80;99.90;;;;;;5074094;28;20227;-74
2022/03/18 10:48:13;;;;;;;14.25;6.13;;;14.40;99.90;;;;;;5057123;28;20044;-75
2022/03/18 10:50:45;;;;;;;14.88;6.25;;;14.90;99.90;;;;;;5061308;28;20040;-74
2022/03/18 10:53:11;;;;;;;9.27;5.00;;;15.20;99.90;;;;;;5057102;28;20059;-74
2022/03/18 10:55:42;;;;;;;12.70;5.72;;;14.90;99.90;;;;;;5053251;28;20040;-74
2022/03/18 10:58:12;;;;;;;16.83;6.50;;;14.80;99.90;;;;;;5068179;28;20056;-72
2022/03/18 11:00:43;;;;;;;14.73;7.20;;;15.10;99.90;;;;;;5070612;28;20044;-74
2022/03/18 11:03:13;;;;;;;13.35;6.00;;;15.30;99.90;;;;;;5053836;28;20231;-74
2022/03/18 11:05:40;;;;;;;16.33;9.68;;;14.80;99.90;;;;;;5056895;28;20142;-73
2022/03/18 11:08:21;;;;;;;12.98;6.65;;;14.90;99.90;;;;;;5020150;28;20369;-74
2022/03/18 11:11:07;;;;;;;11.90;6.70;;;14.70;99.90;;;;;;5040410;28;20258;-72
2022/03/18 11:14:03;;;;;;;13.30;6.63;;;15.20;99.90;;;;;;5049184;28;20063;-74
2022/03/18 11:16:47;;;;;;;16.95;6.50;;;15.00;99.90;;;;;;5059080;28;20366;-74
2022/03/18 11:19:14;;;;;;;15.55;7.05;;;15.20;99.90;;;;;;5041246;28;20045;-74
2022/03/18 11:21:40;;;;;;;13.77;6.18;;;15.10;99.90;;;;;;5052525;28;20060;-75
2022/03/18 11:24:15;;;;;;;14.77;7.22;;;14.90;99.90;;;;;;5036729;28;20045;-74
2022/03/18 11:26:50;;;;;;;13.60;6.07;;;14.60;99.90;;;;;;5042477;28;20049;-75
2022/03/18 11:29:23;;;;;;;14.98;6.82;;;14.40;99.90;;;;;;5057368;28;20053;-74
2022/03/18 11:32:15;;;;;;;11.77;5.97;;;15.10;99.90;;;;;;5039305;28;20388;-74
2022/03/18 11:34:57;;;;;;;8.75;5.80;;;15.40;99.90;;;;;;5040586;28;20111;-75
2022/03/18 11:37:25;;;;;;;15.25;6.03;;;15.30;99.90;;;;;;5035945;28;20167;-75
2022/03/18 11:39:51;;;;;;;13.43;5.38;;;15.30;99.90;;;;;;5046996;28;20346;-75
2022/03/18 11:42:22;;;;;;;15.52;6.78;;;15.80;99.90;;;;;;5053072;28;21192;-75
2022/03/18 11:45:07;;;;;;;18.77;5.63;;;15.10;99.90;;;;;;5051475;28;20094;-75
2022/03/18 11:47:33;;;;;;;14.00;5.50;;;15.60;99.90;;;;;;5057369;28;20032;-75
2022/03/18 11:49:59;;;;;;;13.23;5.60;;;15.30;99.90;;;;;;5039342;28;20078;-75
2022/03/18 11:52:25;;;;;;;12.63;5.70;;;15.00;99.90;;;;;;5039789;28;20040;-74
2022/03/18 11:55:01;;;;;;;13.80;7.05;;;14.70;99.90;;;;;;5072561;28;20048;-74
2022/03/18 11:57:34;;;;;;;14.43;5.75;;;14.30;99.90;;;;;;5053435;28;20295;-74
2022/03/18 12:00:07;;;;;;;15.27;6.00;;;14.50;99.90;;;;;;5055804;28;20059;-73
2022/03/18 12:02:37;;;;;;;16.90;5.85;;;14.50;99.90;;;;;;5039564;28;20053;-73
2022/03/18 12:05:06;;;;;;;16.48;6.55;;;14.10;99.90;;;;;;5038892;28;20256;-75
2022/03/18 12:07:49;;;;;;;12.63;6.45;;;14.30;99.90;;;;;;5022588;28;20072;-75
2022/03/18 12:10:31;;;;;;;19.10;6.68;;;14.00;99.90;;;;;;5056267;28;20048;-73
2022/03/18 12:12:57;;;;;;;15.07;5.72;;;14.00;99.90;;;;;;5050797;28;20136;-75
2022/03/18 12:15:23;;;;;;;15.48;6.35;;;14.30;99.90;;;;;;5068461;28;20404;-75
2022/03/18 12:17:53;;;;;;;14.10;5.90;;;14.50;99.90;;;;;;5055434;28;20049;-73
2022/03/18 12:20:21;;;;;;;12.35;5.20;;;14.80;99.90;;;;;;5056053;28;20044;-73
2022/03/18 12:22:48;;;;;;;14.85;6.30;;;14.70;99.90;;;;;;5055959;28;20369;-73
2022/03/18 12:25:14;;;;;;;14.15;5.80;;;14.60;99.90;;;;;;5056230;28;20075;-73
2022/03/18 12:27:41;;;;;;;16.42;5.70;;;14.40;99.90;;;;;;5055534;28;20044;-73
2022/03/18 12:30:10;;;;;;;17.83;5.10;;;14.50;99.90;;;;;;5050472;28;20094;-74
2022/03/18 12:32:50;;;;;;;12.38;4.95;;;14.70;99.90;;;;;;5055868;28;20052;-72
2022/03/18 12:35:17;;;;;;;12.75;4.80;;;14.70;99.90;;;;;;5055673;28;20215;-73
2022/03/18 12:37:45;;;;;;;14.93;4.40;;;14.50;99.90;;;;;;5023014;28;20074;-74
2022/03/18 12:40:16;;;;;;;12.00;4.30;;;14.30;99.90;;;;;;5029183;28;20048;-73
2022/03/18 12:42:49;;;;;;;10.25;4.35;;;14.20;99.90;;;;;;5069295;28;20063;-73
2022/03/18 12:45:34;;;;;;;14.23;5.07;;;14.30;99.90;;;;;;5038984;28;20044;-74
2022/03/18 12:48:12;;;;;;;13.45;4.50;;;14.20;99.90;;;;;;5055314;28;20107;-73
2022/03/18 12:50:42;;;;;;;17.27;5.55;;;14.40;99.90;;;;;;5038589;28;20043;-74
2022/03/18 12:53:20;;;;;;;16.17;5.63;;;14.40;99.90;;;;;;5054966;28;20099;-73
2022/03/18 12:55:53;;;;;;;16.48;5.00;;;14.60;99.90;;;;;;5041581;28;20215;-73
2022/03/18 12:58:21;;;;;;;12.82;4.07;;;14.40;99.90;;;;;;5042315;28;20159;-73
2022/03/18 13:00:54;;;;;;;15.52;4.63;;;14.40;99.90;;;;;;5037631;28;20108;-73
2022/03/18 13:03:25;;;;;;;14.68;4.30;;;14.50;99.90;;;;;;5059998;28;20071;-73
2022/03/18 13:05:52;;;;;;;14.18;4.80;;;14.40;99.90;;;;;;5075777;28;20278;-74